createdAt,value
2018-11-04T00:01:42.650Z,-1.00
2018-11-04T00:04:11.078Z,-1.00
2018-11-04T00:06:39.382Z,-1.10
2018-11-04T00:09:09.093Z,-1.10
2018-11-04T00:11:37.568Z,-1.10
2018-11-04T00:14:06.074Z,-1.10
2018-11-04T00:16:34.509Z,-1.20
2018-11-04T00:19:02.977Z,-1.20
2018-11-04T00:21:31.426Z,-1.30
2018-11-04T00:23:59.764Z,-1.30
2018-11-04T00:26:28.116Z,-1.30
2018-11-04T00:28:56.561Z,-1.30
2018-11-04T00:31:24.898Z,-1.30
2018-11-04T00:33:53.245Z,-1.30
2018-11-04T00:36:21.693Z,-1.30
2018-11-04T00:38:50.070Z,-1.30
2018-11-04T00:41:18.430Z,-1.40
2018-11-04T00:43:46.788Z,-1.40
2018-11-04T00:46:15.185Z,-1.40
2018-11-04T00:48:43.617Z,-1.40
2018-11-04T00:51:11.969Z,-1.40
2018-11-04T00:53:40.268Z,-1.40
2018-11-04T00:56:08.773Z,-1.40
2018-11-04T00:58:37.286Z,-1.50
2018-11-04T01:01:06.117Z,-1.50
2018-11-04T01:03:34.453Z,-1.50
2018-11-04T01:06:02.822Z,-1.50
2018-11-04T01:08:31.144Z,-1.60
2018-11-04T01:10:59.833Z,-1.60
2018-11-04T01:13:28.183Z,-1.60
2018-11-04T01:15:56.546Z,-1.60
2018-11-04T01:18:24.898Z,-1.50
2018-11-04T01:20:53.246Z,-1.50
2018-11-04T01:23:21.570Z,-1.50
2018-11-04T01:25:49.846Z,-1.50
2018-11-04T01:28:18.142Z,-1.60
2018-11-04T01:30:46.445Z,-1.60
2018-11-04T01:33:14.752Z,-1.60
2018-11-04T01:35:43.041Z,-1.50
2018-11-04T01:38:11.362Z,-1.60
2018-11-04T01:40:39.689Z,-1.60
2018-11-04T01:43:08.029Z,-1.60
2018-11-04T01:45:36.338Z,-1.60
2018-11-04T01:48:04.729Z,-1.60
2018-11-04T01:50:33.068Z,-1.60
2018-11-04T01:53:01.374Z,-1.70
2018-11-04T01:55:29.679Z,-1.70
2018-11-04T01:57:57.950Z,-1.70
2018-11-04T02:00:26.241Z,-1.70
2018-11-04T02:02:54.658Z,-1.70
2018-11-04T02:05:22.966Z,-1.70
2018-11-04T02:07:51.308Z,-1.70
2018-11-04T02:10:19.636Z,-1.70
2018-11-04T02:12:47.953Z,-1.70
2018-11-04T02:15:16.376Z,-1.70
2018-11-04T02:17:44.652Z,-1.70
2018-11-04T02:20:13.579Z,-1.70
2018-11-04T02:22:42.193Z,-1.70
2018-11-04T02:25:11.896Z,-1.70
2018-11-04T02:27:40.506Z,-1.70
2018-11-04T02:30:11.107Z,-1.70
2018-11-04T02:32:39.392Z,-1.70
2018-11-04T02:35:07.794Z,-1.70
2018-11-04T02:37:36.248Z,-1.70
2018-11-04T02:40:05.081Z,-1.70
2018-11-04T02:42:33.451Z,-1.70
2018-11-04T02:45:01.901Z,-1.80
2018-11-04T02:47:30.428Z,-1.80
2018-11-04T02:49:58.865Z,-1.80
2018-11-04T02:52:27.169Z,-1.80
2018-11-04T02:54:55.500Z,-1.80
2018-11-04T02:57:23.875Z,-1.80
2018-11-04T02:59:52.165Z,-1.80
2018-11-04T03:02:20.541Z,-1.80
2018-11-04T03:04:48.860Z,-1.80
2018-11-04T03:07:17.244Z,-1.70
2018-11-04T03:09:45.625Z,-1.70
2018-11-04T03:12:13.917Z,-1.70
2018-11-04T03:14:42.352Z,-1.70
2018-11-04T03:17:10.736Z,-1.80
2018-11-04T03:19:39.055Z,-1.80
2018-11-04T03:22:08.650Z,-1.80
2018-11-04T03:24:37.128Z,-1.80
2018-11-04T03:27:05.476Z,-1.80
2018-11-04T03:29:33.786Z,-1.80
2018-11-04T03:32:02.203Z,-1.80
2018-11-04T03:34:30.576Z,-1.80
2018-11-04T03:36:58.972Z,-1.80
2018-11-04T03:39:27.373Z,-1.80
2018-11-04T03:41:56.658Z,-1.80
2018-11-04T03:44:25.097Z,-1.90
2018-11-04T03:46:53.419Z,-1.90
2018-11-04T03:49:22.338Z,-1.90
2018-11-04T03:51:50.705Z,-1.90
2018-11-04T03:54:19.064Z,-1.90
2018-11-04T03:56:47.383Z,-1.90
2018-11-04T03:59:15.874Z,-2.00
2018-11-04T04:01:44.153Z,-1.90
2018-11-04T04:04:13.030Z,-1.90
2018-11-04T04:06:41.329Z,-1.90
2018-11-04T04:09:10.227Z,-1.90
2018-11-04T04:11:38.658Z,-1.90
2018-11-04T04:14:07.393Z,-1.90
2018-11-04T04:16:35.704Z,-1.90
2018-11-04T04:19:04.053Z,-1.90
2018-11-04T04:21:32.430Z,-1.90
2018-11-04T04:24:00.742Z,-1.90
2018-11-04T04:26:29.092Z,-1.90
2018-11-04T04:28:57.396Z,-1.90
2018-11-04T04:31:25.797Z,-1.80
2018-11-04T04:33:54.076Z,-1.80
2018-11-04T04:36:22.384Z,-1.80
2018-11-04T04:38:50.666Z,-1.80
2018-11-04T04:41:18.992Z,-1.70
2018-11-04T04:43:47.306Z,-1.70
2018-11-04T04:46:15.666Z,-1.70
2018-11-04T04:48:43.990Z,-1.70
2018-11-04T04:51:12.281Z,-1.60
2018-11-04T04:53:40.597Z,-1.60
2018-11-04T04:56:08.944Z,-1.50
2018-11-04T04:58:37.224Z,-1.50
2018-11-04T05:01:05.548Z,-1.50
2018-11-04T05:03:33.849Z,-1.50
2018-11-04T05:06:02.313Z,-1.50
2018-11-04T05:08:30.706Z,-1.40
2018-11-04T05:10:59.053Z,-1.40
2018-11-04T05:13:27.334Z,-1.30
2018-11-04T05:15:55.690Z,-1.20
2018-11-04T05:18:23.932Z,-1.20
2018-11-04T05:20:52.255Z,-1.10
2018-11-04T05:23:20.677Z,-1.10
2018-11-04T05:25:49.060Z,-1.00
2018-11-04T05:28:17.374Z,-1.00
2018-11-04T05:30:45.685Z,-0.90
2018-11-04T05:33:13.968Z,-0.90
2018-11-04T05:35:42.285Z,-0.80
2018-11-04T05:38:18.250Z,-0.70
2018-11-04T05:40:46.505Z,-0.60
2018-11-04T05:43:14.809Z,-0.60
2018-11-04T05:45:43.109Z,-0.50
2018-11-04T05:48:11.541Z,-0.40
2018-11-04T05:50:39.805Z,-0.40
2018-11-04T05:53:08.140Z,-0.30
2018-11-04T05:55:36.479Z,-0.30
2018-11-04T05:58:04.872Z,-0.20
2018-11-04T06:00:33.330Z,-0.10
2018-11-04T06:03:01.653Z,-0.10
2018-11-04T06:05:30.667Z,0.00
2018-11-04T06:07:58.988Z,0.00
2018-11-04T06:10:27.301Z,0.10
2018-11-04T06:12:55.704Z,0.10
2018-11-04T06:15:23.981Z,0.20
2018-11-04T06:17:52.364Z,0.20
2018-11-04T06:20:20.683Z,0.30
2018-11-04T06:22:49.001Z,0.30
2018-11-04T06:25:17.351Z,0.30
2018-11-04T06:27:45.710Z,0.40
2018-11-04T06:30:14.178Z,0.40
2018-11-04T06:32:43.340Z,0.40
2018-11-04T06:35:11.740Z,0.40
2018-11-04T06:37:40.056Z,0.50
2018-11-04T06:40:09.221Z,0.50
2018-11-04T06:42:37.634Z,0.60
2018-11-04T06:45:06.746Z,0.60
2018-11-04T06:47:35.133Z,0.60
2018-11-04T06:50:03.430Z,0.70
2018-11-04T06:52:31.815Z,0.70
2018-11-04T06:55:00.118Z,0.70
2018-11-04T06:57:28.433Z,0.80
2018-11-04T06:59:56.872Z,0.80
2018-11-04T07:02:25.716Z,0.90
2018-11-04T07:04:54.124Z,0.90
2018-11-04T07:07:22.474Z,0.90
2018-11-04T07:09:50.868Z,1.00
2018-11-04T07:12:19.184Z,1.10
2018-11-04T07:14:47.472Z,1.10
2018-11-04T07:17:15.809Z,1.20
2018-11-04T07:19:44.115Z,1.20
2018-11-04T07:22:12.425Z,1.30
2018-11-04T07:24:40.765Z,1.40
2018-11-04T07:27:09.069Z,1.50
2018-11-04T07:29:37.381Z,1.50
2018-11-04T07:32:05.976Z,1.60
2018-11-04T07:34:34.276Z,1.60
2018-11-04T07:37:02.560Z,1.60
2018-11-04T07:39:31.152Z,1.70
2018-11-04T07:41:59.404Z,1.70
2018-11-04T07:44:27.783Z,1.80
2018-11-04T07:46:56.024Z,1.90
2018-11-04T07:49:24.353Z,2.00
2018-11-04T07:51:52.643Z,2.00
2018-11-04T07:54:20.961Z,2.00
2018-11-04T07:56:49.274Z,2.10
2018-11-04T07:59:17.640Z,2.20
2018-11-04T08:01:46.013Z,2.30
2018-11-04T08:04:14.468Z,2.30
2018-11-04T08:06:42.818Z,2.40
2018-11-04T08:09:11.362Z,2.50
2018-11-04T08:11:39.860Z,2.50
2018-11-04T08:14:09.253Z,2.60
2018-11-04T08:16:37.540Z,2.60
2018-11-04T08:19:05.865Z,2.70
2018-11-04T08:21:34.184Z,2.70
2018-11-04T08:24:02.492Z,2.80
2018-11-04T08:26:30.864Z,2.90
2018-11-04T08:28:59.187Z,2.90
2018-11-04T08:31:27.474Z,3.00
2018-11-04T08:33:55.816Z,3.10
2018-11-04T08:36:24.138Z,3.10
2018-11-04T08:38:52.562Z,3.20
2018-11-04T08:41:20.862Z,3.30
2018-11-04T08:43:49.332Z,3.30
2018-11-04T08:46:17.612Z,3.40
2018-11-04T08:48:45.950Z,3.50
2018-11-04T08:51:14.301Z,3.50
2018-11-04T08:53:42.560Z,3.60
2018-11-04T08:56:10.834Z,3.70
2018-11-04T08:58:39.173Z,3.70
2018-11-04T09:01:07.509Z,3.80
2018-11-04T09:03:35.809Z,3.90
2018-11-04T09:06:04.281Z,4.00
2018-11-04T09:08:32.578Z,4.10
2018-11-04T09:11:00.913Z,4.10
2018-11-04T09:13:29.195Z,4.20
2018-11-04T09:15:57.564Z,4.30
2018-11-04T09:18:25.853Z,4.40
2018-11-04T09:20:54.197Z,4.50
2018-11-04T09:23:22.461Z,4.60
2018-11-04T09:25:50.785Z,4.80
2018-11-04T09:28:19.062Z,4.90
2018-11-04T09:30:47.332Z,5.00
2018-11-04T09:33:15.628Z,5.10
2018-11-04T09:35:44.052Z,5.20
2018-11-04T09:38:12.195Z,5.30
2018-11-04T09:40:40.456Z,5.40
2018-11-04T09:43:08.773Z,5.50
2018-11-04T09:45:37.063Z,5.60
2018-11-04T09:48:05.746Z,5.70
2018-11-04T09:50:34.008Z,5.80
2018-11-04T09:53:02.310Z,5.90
2018-11-04T09:55:30.613Z,5.90
2018-11-04T09:57:58.893Z,6.00
2018-11-04T10:00:27.195Z,6.10
2018-11-04T10:02:55.481Z,6.20
2018-11-04T10:05:23.754Z,6.30
2018-11-04T10:07:52.036Z,6.50
2018-11-04T10:10:20.416Z,6.60
2018-11-04T10:12:48.709Z,6.70
2018-11-04T10:15:17.849Z,6.80
2018-11-04T10:17:46.144Z,6.90
2018-11-04T10:20:14.751Z,7.00
2018-11-04T10:22:42.881Z,7.20
2018-11-04T10:25:12.427Z,7.30
2018-11-04T10:27:41.355Z,7.50
2018-11-04T10:30:12.681Z,7.60
2018-11-04T10:32:41.036Z,7.70
2018-11-04T10:35:09.948Z,7.80
2018-11-04T10:37:38.860Z,7.90
2018-11-04T10:40:07.936Z,8.00
2018-11-04T10:42:36.316Z,8.10
2018-11-04T10:45:05.026Z,8.20
2018-11-04T10:47:33.448Z,8.30
2018-11-04T10:50:01.796Z,8.40
2018-11-04T10:52:30.218Z,8.50
2018-11-04T10:54:58.523Z,8.60
2018-11-04T10:57:26.785Z,8.70
2018-11-04T10:59:55.085Z,8.80
2018-11-04T11:02:23.376Z,8.80
2018-11-04T11:04:51.722Z,8.90
2018-11-04T11:07:19.978Z,9.00
2018-11-04T11:09:48.305Z,9.10
2018-11-04T11:12:16.616Z,9.20
2018-11-04T11:14:44.930Z,9.30
2018-11-04T11:17:13.220Z,9.30
2018-11-04T11:19:41.566Z,9.30
2018-11-04T11:22:09.867Z,9.40
2018-11-04T11:24:38.172Z,9.40
2018-11-04T11:27:06.480Z,9.50
2018-11-04T11:29:34.810Z,9.60
2018-11-04T11:32:03.064Z,9.70
2018-11-04T11:34:31.345Z,9.80
2018-11-04T11:36:59.712Z,10.00
2018-11-04T11:39:27.995Z,10.10
2018-11-04T11:41:56.283Z,10.20
2018-11-04T11:44:24.558Z,10.30
2018-11-04T11:46:52.837Z,10.50
2018-11-04T11:49:21.101Z,10.50
2018-11-04T11:51:49.416Z,10.60
2018-11-04T11:54:17.704Z,10.70
2018-11-04T11:56:46.099Z,10.80
2018-11-04T11:59:14.428Z,10.80
2018-11-04T12:01:42.718Z,10.80
2018-11-04T12:04:11.205Z,10.80
2018-11-04T12:06:39.476Z,10.80
2018-11-04T12:09:08.130Z,10.80
2018-11-04T12:11:36.615Z,10.80
2018-11-04T12:14:04.948Z,10.90
2018-11-04T12:16:33.229Z,10.90
2018-11-04T12:19:01.555Z,10.90
2018-11-04T12:21:29.855Z,10.90
2018-11-04T12:23:58.144Z,11.00
2018-11-04T12:26:26.400Z,11.10
2018-11-04T12:28:56.005Z,11.10
2018-11-04T12:31:24.584Z,11.10
2018-11-04T12:33:52.868Z,11.10
2018-11-04T12:36:21.180Z,11.20
2018-11-04T12:38:49.541Z,11.20
2018-11-04T12:41:17.812Z,11.30
2018-11-04T12:43:46.090Z,11.30
2018-11-04T12:46:14.424Z,11.30
2018-11-04T12:48:42.932Z,11.30
2018-11-04T12:51:11.235Z,11.30
2018-11-04T12:53:39.517Z,11.30
2018-11-04T12:56:08.430Z,11.30
2018-11-04T12:58:36.745Z,11.40
2018-11-04T13:01:05.179Z,11.40
2018-11-04T13:03:33.600Z,11.40
2018-11-04T13:06:01.874Z,11.40
2018-11-04T13:08:30.326Z,11.40
2018-11-04T13:10:58.857Z,11.40
2018-11-04T13:13:27.131Z,11.40
2018-11-04T13:15:55.440Z,11.40
2018-11-04T13:18:23.714Z,11.50
2018-11-04T13:23:26.775Z,11.50
2018-11-04T13:25:55.130Z,11.60
2018-11-04T13:28:23.449Z,11.60
2018-11-04T13:30:51.726Z,11.60
2018-11-04T13:33:20.110Z,11.60
2018-11-04T13:35:48.465Z,11.60
2018-11-04T13:38:16.756Z,11.60
2018-11-04T13:40:45.072Z,11.60
2018-11-04T13:43:13.557Z,11.60
2018-11-04T13:45:48.576Z,11.60
2018-11-04T13:48:16.936Z,11.60
2018-11-04T13:50:45.973Z,11.60
2018-11-04T13:53:14.323Z,11.60
2018-11-04T13:55:42.644Z,11.60
2018-11-04T13:58:10.973Z,11.60
2018-11-04T14:00:39.273Z,11.60
2018-11-04T14:03:07.760Z,11.60
2018-11-04T14:05:36.000Z,11.70
2018-11-04T14:08:04.302Z,11.70
2018-11-04T14:10:33.155Z,11.80
2018-11-04T14:13:01.605Z,11.80
2018-11-04T14:15:29.840Z,11.80
2018-11-04T14:17:58.262Z,11.90
2018-11-04T14:20:26.608Z,11.90
2018-11-04T14:22:54.902Z,12.00
2018-11-04T14:25:23.213Z,12.00
2018-11-04T14:27:51.666Z,12.10
2018-11-04T14:30:20.000Z,12.00
2018-11-04T14:32:48.374Z,12.00
2018-11-04T14:35:16.846Z,11.90
2018-11-04T14:37:45.187Z,11.90
2018-11-04T14:40:14.698Z,11.90
2018-11-04T14:42:43.748Z,11.90
2018-11-04T14:45:18.521Z,11.90
2018-11-04T14:47:46.834Z,11.80
2018-11-04T14:50:16.561Z,11.80
2018-11-04T14:52:44.940Z,11.70
2018-11-04T14:55:13.315Z,11.70
2018-11-04T14:57:41.737Z,11.70
2018-11-04T15:00:13.002Z,11.60
2018-11-04T15:02:41.524Z,11.60
2018-11-04T15:05:10.825Z,11.60
2018-11-04T15:07:39.530Z,11.60
2018-11-04T15:10:10.230Z,11.60
2018-11-04T15:12:39.021Z,11.50
2018-11-04T15:15:09.299Z,11.50
2018-11-04T15:17:37.675Z,11.50
2018-11-04T15:20:07.418Z,11.50
2018-11-04T15:22:35.856Z,11.50
2018-11-04T15:25:04.218Z,11.40
2018-11-04T15:27:32.656Z,11.40
2018-11-04T15:30:00.977Z,11.40
2018-11-04T15:32:29.596Z,11.30
2018-11-04T15:34:58.149Z,11.30
2018-11-04T15:37:26.519Z,11.30
2018-11-04T15:39:55.145Z,11.20
2018-11-04T15:42:23.469Z,11.20
2018-11-04T15:44:52.130Z,11.20
2018-11-04T15:47:20.656Z,11.10
2018-11-04T15:49:50.266Z,11.10
2018-11-04T15:52:18.837Z,11.10
2018-11-04T15:54:47.445Z,11.10
2018-11-04T15:57:17.445Z,11.00
2018-11-04T15:59:46.510Z,11.00
2018-11-04T16:02:15.861Z,11.00
2018-11-04T16:04:44.995Z,11.00
2018-11-04T16:07:12.614Z,10.90
2018-11-04T16:09:41.581Z,10.90
2018-11-04T16:12:10.644Z,10.90
2018-11-04T16:14:39.287Z,10.90
2018-11-04T16:17:07.583Z,10.80
2018-11-04T16:19:35.868Z,10.80
2018-11-04T16:22:05.308Z,10.80
2018-11-04T16:24:34.728Z,10.70
2018-11-04T16:27:03.381Z,10.70
2018-11-04T16:29:31.763Z,10.70
2018-11-04T16:32:00.384Z,10.70
2018-11-04T16:34:31.641Z,10.70
2018-11-04T16:37:00.011Z,10.70
2018-11-04T16:39:28.686Z,10.80
2018-11-04T16:41:58.090Z,10.80
2018-11-04T16:44:26.517Z,10.80
2018-11-04T16:46:55.281Z,10.90
2018-11-04T16:49:25.642Z,10.90
2018-11-04T16:51:54.172Z,10.90
2018-11-04T16:54:22.787Z,11.00
2018-11-04T16:56:53.649Z,11.10
2018-11-04T16:59:22.610Z,11.00
2018-11-04T17:01:50.933Z,11.10
2018-11-04T17:04:19.520Z,11.00
2018-11-04T17:06:47.816Z,11.00
2018-11-04T17:09:16.286Z,11.00
2018-11-04T17:11:44.722Z,11.00
2018-11-04T17:14:13.933Z,11.00
2018-11-04T17:16:43.300Z,11.00
2018-11-04T17:19:11.881Z,11.00
2018-11-04T17:21:40.703Z,11.00
2018-11-04T17:24:09.217Z,10.90
2018-11-04T17:26:37.807Z,10.90
2018-11-04T17:29:06.505Z,10.90
2018-11-04T17:31:34.904Z,10.90
2018-11-04T17:34:05.404Z,10.90
2018-11-04T17:36:33.863Z,10.90
2018-11-04T17:39:02.317Z,10.80
2018-11-04T17:41:31.813Z,10.80
2018-11-04T17:44:00.280Z,10.90
2018-11-04T17:46:28.626Z,10.80
2018-11-04T17:48:57.201Z,10.90
2018-11-04T17:51:28.569Z,10.90
2018-11-04T17:53:57.415Z,10.90
2018-11-04T17:56:27.207Z,10.90
2018-11-04T17:58:56.082Z,10.90
2018-11-04T18:01:25.049Z,10.90
2018-11-04T18:03:54.557Z,10.90
2018-11-04T18:06:23.541Z,10.80
2018-11-04T18:08:52.911Z,10.80
2018-11-04T18:11:21.426Z,10.80
2018-11-04T18:13:49.982Z,10.80
2018-11-04T18:16:18.545Z,10.80
2018-11-04T18:18:47.346Z,10.70
2018-11-04T18:21:15.867Z,10.70
2018-11-04T18:23:45.099Z,10.70
2018-11-04T18:26:13.580Z,10.70
2018-11-04T18:28:42.013Z,10.70
2018-11-04T18:31:14.102Z,10.60
2018-11-04T18:33:43.354Z,10.60
2018-11-04T18:36:11.885Z,10.60
2018-11-04T18:38:40.238Z,10.60
2018-11-04T18:41:08.654Z,10.60
2018-11-04T18:43:36.987Z,10.60
2018-11-04T18:46:05.561Z,10.60
2018-11-04T18:48:34.046Z,10.60
2018-11-04T18:51:02.602Z,10.50
2018-11-04T18:53:31.906Z,10.50
2018-11-04T18:56:00.713Z,10.50
2018-11-04T18:58:29.406Z,10.50
2018-11-04T19:00:57.682Z,10.50
2018-11-04T19:03:26.126Z,10.50
2018-11-04T19:05:54.494Z,10.50
2018-11-04T19:08:23.487Z,10.50
2018-11-04T19:10:52.585Z,10.50
2018-11-04T19:13:22.065Z,10.50
2018-11-04T19:15:50.464Z,10.40
2018-11-04T19:18:19.331Z,10.40
2018-11-04T19:20:48.028Z,10.40
2018-11-04T19:23:16.397Z,10.40
2018-11-04T19:25:44.763Z,10.40
2018-11-04T19:28:13.076Z,10.40
2018-11-04T19:30:41.475Z,10.40
2018-11-04T19:33:09.974Z,10.30
2018-11-04T19:35:38.353Z,10.30
2018-11-04T19:38:06.821Z,10.30
2018-11-04T19:40:35.155Z,10.30
2018-11-04T19:43:03.857Z,10.30
2018-11-04T19:45:33.475Z,10.30
2018-11-04T19:48:01.836Z,10.20
2018-11-04T19:50:30.238Z,10.20
2018-11-04T19:52:59.210Z,10.20
2018-11-04T19:55:27.662Z,10.20
2018-11-04T19:57:56.025Z,10.20
2018-11-04T20:00:24.951Z,10.10
2018-11-04T20:02:53.622Z,10.10
2018-11-04T20:05:22.368Z,10.10
2018-11-04T20:07:51.929Z,10.10
2018-11-04T20:10:20.875Z,10.10
2018-11-04T20:12:55.504Z,10.10
2018-11-04T20:15:23.792Z,10.10
2018-11-04T20:17:52.233Z,10.10
2018-11-04T20:20:25.110Z,10.10
2018-11-04T20:22:53.720Z,10.00
2018-11-04T20:25:27.461Z,10.00
2018-11-04T20:27:56.034Z,10.00
2018-11-04T20:30:24.639Z,10.00
2018-11-04T20:32:58.545Z,10.00
2018-11-04T20:35:27.124Z,10.00
2018-11-04T20:37:55.932Z,10.00
2018-11-04T20:40:29.616Z,10.00
2018-11-04T20:42:58.034Z,10.00
2018-11-04T20:45:26.455Z,10.00
2018-11-04T20:48:00.308Z,9.90
2018-11-04T20:50:34.128Z,9.90
2018-11-04T20:53:02.590Z,9.90
2018-11-04T20:55:36.369Z,9.90
2018-11-04T20:58:05.253Z,9.90
2018-11-04T21:00:33.771Z,9.90
2018-11-04T21:03:02.278Z,9.90
2018-11-04T21:05:30.640Z,9.90
2018-11-04T21:07:58.980Z,9.90
2018-11-04T21:10:27.316Z,10.00
2018-11-04T21:12:55.668Z,10.00
2018-11-04T21:15:23.944Z,9.90
2018-11-04T21:17:52.269Z,10.00
2018-11-04T21:20:20.640Z,10.00
2018-11-04T21:22:48.896Z,10.00
2018-11-04T21:25:17.318Z,10.00
2018-11-04T21:27:45.565Z,10.00
2018-11-04T21:30:14.160Z,10.00
2018-11-04T21:32:42.901Z,10.00
2018-11-04T21:35:11.193Z,10.00
2018-11-04T21:37:39.469Z,9.90
2018-11-04T21:40:08.826Z,10.00
2018-11-04T21:42:37.511Z,10.00
2018-11-04T21:45:07.478Z,9.90
2018-11-04T21:47:35.741Z,9.90
2018-11-04T21:50:04.079Z,9.90
2018-11-04T21:52:32.333Z,9.90
2018-11-04T21:55:00.616Z,9.90
2018-11-04T21:57:28.956Z,9.90
2018-11-04T21:59:57.244Z,9.90
2018-11-04T22:02:26.608Z,9.90
2018-11-04T22:04:54.948Z,9.80
2018-11-04T22:07:23.280Z,9.80
2018-11-04T22:09:51.556Z,9.80
2018-11-04T22:12:19.833Z,9.80
2018-11-04T22:14:48.097Z,9.80
2018-11-04T22:17:16.394Z,9.80
2018-11-04T22:19:44.714Z,9.80
2018-11-04T22:22:13.016Z,9.80
2018-11-04T22:24:41.333Z,9.80
2018-11-04T22:27:09.716Z,9.80
2018-11-04T22:29:38.045Z,9.80
2018-11-04T22:32:06.745Z,9.80
2018-11-04T22:34:35.059Z,9.80
2018-11-04T22:37:03.370Z,9.80
2018-11-04T22:39:31.680Z,9.80
2018-11-04T22:42:00.066Z,9.70
2018-11-04T22:44:28.328Z,9.70
2018-11-04T22:46:56.641Z,9.70
2018-11-04T22:49:24.941Z,9.70
2018-11-04T22:51:53.201Z,9.70
2018-11-04T22:54:21.597Z,9.70
2018-11-04T22:56:49.905Z,9.70
2018-11-04T22:59:18.233Z,9.70
2018-11-04T23:01:46.543Z,9.60
2018-11-04T23:04:14.853Z,9.60
2018-11-04T23:06:43.073Z,9.60
2018-11-04T23:09:11.397Z,9.60
2018-11-04T23:11:39.959Z,9.60
2018-11-04T23:14:08.279Z,9.60
2018-11-04T23:16:36.541Z,9.60
2018-11-04T23:19:04.917Z,9.60
2018-11-04T23:21:33.217Z,9.50
2018-11-04T23:24:01.565Z,9.50
2018-11-04T23:26:29.953Z,9.50
2018-11-04T23:28:58.241Z,9.50
2018-11-04T23:31:26.537Z,9.50
2018-11-04T23:33:54.864Z,9.50
2018-11-04T23:36:23.121Z,9.50
2018-11-04T23:38:51.421Z,9.50
2018-11-04T23:41:19.788Z,9.50
2018-11-04T23:43:48.150Z,9.50
2018-11-04T23:46:16.483Z,9.50
2018-11-04T23:48:44.788Z,9.50
2018-11-04T23:51:13.085Z,9.40
2018-11-04T23:53:41.356Z,9.40
2018-11-04T23:56:09.677Z,9.40
2018-11-04T23:58:37.917Z,9.40
